sensor_id;sensor_type;location;lat;lon;timestamp;temperature;humidity
2999;DHT22;1509;51.964;7.628;2023-04-29T00:02:19;12.10;99.90
2999;DHT22;1509;51.964;7.628;2023-04-29T00:04:45;12.00;99.90
2999;DHT22;1509;51.964;7.628;2023-04-29T00:07:11;11.90;99.90
2999;DHT22;1509;51.964;7.628;2023-04-29T00:09:39;11.80;99.90
2999;DHT22;1509;51.964;7.628;2023-04-29T00:12:05;11.80;99.90
2999;DHT22;1509;51.964;7.628;2023-04-29T00:14:31;11.80;99.90
2999;DHT22;1509;51.964;7.628;2023-04-29T00:16:56;11.70;99.90
2999;DHT22;1509;51.964;7.628;2023-04-29T00:19:22;11.60;99.90
2999;DHT22;1509;51.964;7.628;2023-04-29T00:21:48;11.70;99.90
2999;DHT22;1509;51.964;7.628;2023-04-29T00:24:13;11.80;99.90
2999;DHT22;1509;51.964;7.628;2023-04-29T00:26:40;11.60;99.90
2999;DHT22;1509;51.964;7.628;2023-04-29T00:29:06;11.50;99.90
2999;DHT22;1509;51.964;7.628;2023-04-29T00:31:35;11.60;99.90
2999;DHT22;1509;51.964;7.628;2023-04-29T00:34:01;11.40;99.90
2999;DHT22;1509;51.964;7.628;2023-04-29T00:36:27;11.60;99.90
2999;DHT22;1509;51.964;7.628;2023-04-29T00:38:53;11.60;99.90
2999;DHT22;1509;51.964;7.628;2023-04-29T00:41:19;11.80;99.90
2999;DHT22;1509;51.964;7.628;2023-04-29T00:43:50;11.60;99.90
2999;DHT22;1509;51.964;7.628;2023-04-29T00:46:17;11.50;99.90
2999;DHT22;1509;51.964;7.628;2023-04-29T00:48:42;11.40;99.90
2999;DHT22;1509;51.964;7.628;2023-04-29T00:51:08;11.40;99.90
2999;DHT22;1509;51.964;7.628;2023-04-29T00:53:34;11.20;99.90
2999;DHT22;1509;51.964;7.628;2023-04-29T00:56:01;11.40;99.90
2999;DHT22;1509;51.964;7.628;2023-04-29T00:58:32;11.20;99.90
2999;DHT22;1509;51.964;7.628;2023-04-29T01:01:02;11.10;99.90
2999;DHT22;1509;51.964;7.628;2023-04-29T01:03:29;11.10;99.90
2999;DHT22;1509;51.964;7.628;2023-04-29T01:08:56;11.10;99.90
2999;DHT22;1509;51.964;7.628;2023-04-29T01:11:33;11.10;99.90
2999;DHT22;1509;51.964;7.628;2023-04-29T01:13:59;11.30;99.90
2999;DHT22;1509;51.964;7.628;2023-04-29T01:16:39;11.00;99.90
2999;DHT22;1509;51.964;7.628;2023-04-29T01:19:38;11.00;99.90
2999;DHT22;1509;51.964;7.628;2023-04-29T01:22:07;10.90;99.90
2999;DHT22;1509;51.964;7.628;2023-04-29T01:24:32;10.80;99.90
2999;DHT22;1509;51.964;7.628;2023-04-29T01:27:04;10.80;99.90
2999;DHT22;1509;51.964;7.628;2023-04-29T01:29:44;11.10;99.90
2999;DHT22;1509;51.964;7.628;2023-04-29T01:32:17;10.80;99.90
2999;DHT22;1509;51.964;7.628;2023-04-29T01:37:55;10.70;99.90
2999;DHT22;1509;51.964;7.628;2023-04-29T01:40:26;10.70;99.90
2999;DHT22;1509;51.964;7.628;2023-04-29T01:43:02;10.70;99.90
2999;DHT22;1509;51.964;7.628;2023-04-29T01:45:30;10.60;99.90
2999;DHT22;1509;51.964;7.628;2023-04-29T01:47:57;10.60;99.90
2999;DHT22;1509;51.964;7.628;2023-04-29T01:50:23;10.60;99.90
2999;DHT22;1509;51.964;7.628;2023-04-29T01:52:49;10.50;99.90
2999;DHT22;1509;51.964;7.628;2023-04-29T01:55:15;10.60;99.90
2999;DHT22;1509;51.964;7.628;2023-04-29T01:57:40;10.60;99.90
2999;DHT22;1509;51.964;7.628;2023-04-29T02:00:07;10.60;99.90
2999;DHT22;1509;51.964;7.628;2023-04-29T02:02:33;10.50;99.90
2999;DHT22;1509;51.964;7.628;2023-04-29T02:04:59;10.60;99.90
2999;DHT22;1509;51.964;7.628;2023-04-29T02:07:25;10.50;99.90
2999;DHT22;1509;51.964;7.628;2023-04-29T02:09:50;10.50;99.90
2999;DHT22;1509;51.964;7.628;2023-04-29T02:14:42;10.50;99.90
2999;DHT22;1509;51.964;7.628;2023-04-29T02:17:08;10.50;99.90
2999;DHT22;1509;51.964;7.628;2023-04-29T02:19:33;10.40;99.90
2999;DHT22;1509;51.964;7.628;2023-04-29T02:21:59;10.50;99.90
2999;DHT22;1509;51.964;7.628;2023-04-29T02:24:25;10.50;99.90
2999;DHT22;1509;51.964;7.628;2023-04-29T02:26:51;10.70;99.90
2999;DHT22;1509;51.964;7.628;2023-04-29T02:29:17;10.70;99.90
2999;DHT22;1509;51.964;7.628;2023-04-29T02:31:43;10.40;99.90
2999;DHT22;1509;51.964;7.628;2023-04-29T02:34:09;10.40;99.90
2999;DHT22;1509;51.964;7.628;2023-04-29T02:36:34;10.40;99.90
2999;DHT22;1509;51.964;7.628;2023-04-29T02:39:00;10.40;99.90
2999;DHT22;1509;51.964;7.628;2023-04-29T02:41:25;10.30;99.90
2999;DHT22;1509;51.964;7.628;2023-04-29T02:43:51;10.40;99.90
2999;DHT22;1509;51.964;7.628;2023-04-29T02:46:17;10.40;99.90
2999;DHT22;1509;51.964;7.628;2023-04-29T02:48:43;10.40;99.90
2999;DHT22;1509;51.964;7.628;2023-04-29T02:51:09;10.60;99.90
2999;DHT22;1509;51.964;7.628;2023-04-29T02:53:35;10.50;99.90
2999;DHT22;1509;51.964;7.628;2023-04-29T02:56:01;10.50;99.90
2999;DHT22;1509;51.964;7.628;2023-04-29T02:58:26;10.30;99.90
2999;DHT22;1509;51.964;7.628;2023-04-29T03:00:52;10.50;99.90
2999;DHT22;1509;51.964;7.628;2023-04-29T03:03:17;10.50;99.90
2999;DHT22;1509;51.964;7.628;2023-04-29T03:05:43;10.40;99.90
2999;DHT22;1509;51.964;7.628;2023-04-29T03:08:09;10.50;99.90
2999;DHT22;1509;51.964;7.628;2023-04-29T03:10:35;10.50;99.90
2999;DHT22;1509;51.964;7.628;2023-04-29T03:13:01;10.50;99.90
2999;DHT22;1509;51.964;7.628;2023-04-29T03:15:27;10.50;99.90
2999;DHT22;1509;51.964;7.628;2023-04-29T03:17:53;10.50;99.90
2999;DHT22;1509;51.964;7.628;2023-04-29T03:20:21;10.50;99.90
2999;DHT22;1509;51.964;7.628;2023-04-29T03:22:47;10.40;99.90
2999;DHT22;1509;51.964;7.628;2023-04-29T03:25:12;10.50;99.90
2999;DHT22;1509;51.964;7.628;2023-04-29T03:27:38;10.50;99.90
2999;DHT22;1509;51.964;7.628;2023-04-29T03:30:06;10.50;99.90
2999;DHT22;1509;51.964;7.628;2023-04-29T03:32:32;10.50;99.90
2999;DHT22;1509;51.964;7.628;2023-04-29T03:34:58;10.60;99.90
2999;DHT22;1509;51.964;7.628;2023-04-29T03:37:23;10.60;99.90
2999;DHT22;1509;51.964;7.628;2023-04-29T03:39:52;10.60;99.90
2999;DHT22;1509;51.964;7.628;2023-04-29T03:42:17;10.60;99.90
2999;DHT22;1509;51.964;7.628;2023-04-29T03:44:43;10.60;99.90
2999;DHT22;1509;51.964;7.628;2023-04-29T03:47:09;10.60;99.90
2999;DHT22;1509;51.964;7.628;2023-04-29T03:49:34;10.70;99.90
2999;DHT22;1509;51.964;7.628;2023-04-29T03:52:00;10.70;99.90
2999;DHT22;1509;51.964;7.628;2023-04-29T03:54:26;10.70;99.90
2999;DHT22;1509;51.964;7.628;2023-04-29T03:56:52;10.60;99.90
2999;DHT22;1509;51.964;7.628;2023-04-29T03:59:18;10.60;99.90
2999;DHT22;1509;51.964;7.628;2023-04-29T04:01:44;10.70;99.90
2999;DHT22;1509;51.964;7.628;2023-04-29T04:04:09;10.70;99.90
2999;DHT22;1509;51.964;7.628;2023-04-29T04:06:35;10.60;99.90
2999;DHT22;1509;51.964;7.628;2023-04-29T04:09:00;10.60;99.90
2999;DHT22;1509;51.964;7.628;2023-04-29T04:11:26;10.60;99.90
2999;DHT22;1509;51.964;7.628;2023-04-29T04:13:52;10.40;99.90
2999;DHT22;1509;51.964;7.628;2023-04-29T04:16:17;10.50;99.90
2999;DHT22;1509;51.964;7.628;2023-04-29T04:18:44;10.70;99.90
2999;DHT22;1509;51.964;7.628;2023-04-29T04:21:10;10.60;99.90
2999;DHT22;1509;51.964;7.628;2023-04-29T04:23:36;10.50;99.90
2999;DHT22;1509;51.964;7.628;2023-04-29T04:26:05;10.60;99.90
2999;DHT22;1509;51.964;7.628;2023-04-29T04:28:31;10.60;99.90
2999;DHT22;1509;51.964;7.628;2023-04-29T04:30:56;10.60;99.90
2999;DHT22;1509;51.964;7.628;2023-04-29T04:33:23;10.60;99.90
2999;DHT22;1509;51.964;7.628;2023-04-29T04:35:48;10.60;99.90
2999;DHT22;1509;51.964;7.628;2023-04-29T04:38:14;10.60;99.90
2999;DHT22;1509;51.964;7.628;2023-04-29T04:40:41;10.50;99.90
2999;DHT22;1509;51.964;7.628;2023-04-29T04:43:09;10.60;99.90
2999;DHT22;1509;51.964;7.628;2023-04-29T04:45:35;10.60;99.90
2999;DHT22;1509;51.964;7.628;2023-04-29T04:48:01;10.60;99.90
2999;DHT22;1509;51.964;7.628;2023-04-29T04:50:27;10.70;99.90
2999;DHT22;1509;51.964;7.628;2023-04-29T04:52:56;10.40;99.90
2999;DHT22;1509;51.964;7.628;2023-04-29T04:55:22;10.40;99.90
2999;DHT22;1509;51.964;7.628;2023-04-29T04:57:48;10.50;99.90
2999;DHT22;1509;51.964;7.628;2023-04-29T05:00:14;10.60;99.90
2999;DHT22;1509;51.964;7.628;2023-04-29T05:02:39;10.40;99.90
2999;DHT22;1509;51.964;7.628;2023-04-29T05:05:05;10.40;99.90
2999;DHT22;1509;51.964;7.628;2023-04-29T05:07:31;10.50;99.90
2999;DHT22;1509;51.964;7.628;2023-04-29T05:09:57;10.50;99.90
2999;DHT22;1509;51.964;7.628;2023-04-29T05:12:27;10.40;99.90
2999;DHT22;1509;51.964;7.628;2023-04-29T05:14:57;10.40;99.90
2999;DHT22;1509;51.964;7.628;2023-04-29T05:17:23;10.30;99.90
2999;DHT22;1509;51.964;7.628;2023-04-29T05:19:49;10.10;99.90
2999;DHT22;1509;51.964;7.628;2023-04-29T05:22:15;10.20;99.90
2999;DHT22;1509;51.964;7.628;2023-04-29T05:24:41;10.20;99.90
2999;DHT22;1509;51.964;7.628;2023-04-29T05:27:06;10.40;99.90
2999;DHT22;1509;51.964;7.628;2023-04-29T05:29:32;10.30;99.90
2999;DHT22;1509;51.964;7.628;2023-04-29T05:31:57;10.40;99.90
2999;DHT22;1509;51.964;7.628;2023-04-29T05:34:23;10.20;99.90
2999;DHT22;1509;51.964;7.628;2023-04-29T05:36:49;10.30;99.90
2999;DHT22;1509;51.964;7.628;2023-04-29T05:39:15;10.10;99.90
2999;DHT22;1509;51.964;7.628;2023-04-29T05:41:42;10.20;99.90
2999;DHT22;1509;51.964;7.628;2023-04-29T05:44:08;10.20;99.90
2999;DHT22;1509;51.964;7.628;2023-04-29T05:46:33;10.20;99.90
2999;DHT22;1509;51.964;7.628;2023-04-29T05:48:59;10.10;99.90
2999;DHT22;1509;51.964;7.628;2023-04-29T05:51:25;10.10;99.90
2999;DHT22;1509;51.964;7.628;2023-04-29T05:53:52;10.20;99.90
2999;DHT22;1509;51.964;7.628;2023-04-29T05:56:18;10.10;99.90
2999;DHT22;1509;51.964;7.628;2023-04-29T05:58:44;10.10;99.90
2999;DHT22;1509;51.964;7.628;2023-04-29T06:01:10;10.10;99.90
2999;DHT22;1509;51.964;7.628;2023-04-29T06:03:36;9.90;99.90
2999;DHT22;1509;51.964;7.628;2023-04-29T06:06:02;10.10;99.90
2999;DHT22;1509;51.964;7.628;2023-04-29T06:08:28;10.10;99.90
2999;DHT22;1509;51.964;7.628;2023-04-29T06:10:54;10.10;99.90
2999;DHT22;1509;51.964;7.628;2023-04-29T06:13:20;9.90;99.90
2999;DHT22;1509;51.964;7.628;2023-04-29T06:15:45;10.00;99.90
2999;DHT22;1509;51.964;7.628;2023-04-29T06:18:11;10.00;99.90
2999;DHT22;1509;51.964;7.628;2023-04-29T06:20:37;10.30;99.90
2999;DHT22;1509;51.964;7.628;2023-04-29T06:23:02;10.10;99.90
2999;DHT22;1509;51.964;7.628;2023-04-29T06:25:29;10.20;99.90
2999;DHT22;1509;51.964;7.628;2023-04-29T06:27:56;10.20;99.90
2999;DHT22;1509;51.964;7.628;2023-04-29T06:30:22;10.30;99.90
2999;DHT22;1509;51.964;7.628;2023-04-29T06:32:48;10.30;99.90
2999;DHT22;1509;51.964;7.628;2023-04-29T06:35:14;10.30;99.90
2999;DHT22;1509;51.964;7.628;2023-04-29T06:37:40;10.10;99.90
2999;DHT22;1509;51.964;7.628;2023-04-29T06:40:06;10.20;99.90
2999;DHT22;1509;51.964;7.628;2023-04-29T06:42:32;10.30;99.90
2999;DHT22;1509;51.964;7.628;2023-04-29T06:44:58;10.30;99.90
2999;DHT22;1509;51.964;7.628;2023-04-29T06:47:23;10.40;99.90
2999;DHT22;1509;51.964;7.628;2023-04-29T06:49:49;10.40;99.90
2999;DHT22;1509;51.964;7.628;2023-04-29T06:52:15;10.40;99.90
2999;DHT22;1509;51.964;7.628;2023-04-29T06:54:40;10.40;99.90
2999;DHT22;1509;51.964;7.628;2023-04-29T06:57:06;10.40;99.90
2999;DHT22;1509;51.964;7.628;2023-04-29T06:59:32;10.50;99.90
2999;DHT22;1509;51.964;7.628;2023-04-29T07:01:57;10.40;99.90
2999;DHT22;1509;51.964;7.628;2023-04-29T07:04:26;10.40;99.90
2999;DHT22;1509;51.964;7.628;2023-04-29T07:06:51;10.30;99.90
2999;DHT22;1509;51.964;7.628;2023-04-29T07:09:18;10.30;99.90
2999;DHT22;1509;51.964;7.628;2023-04-29T07:11:44;10.40;99.90
2999;DHT22;1509;51.964;7.628;2023-04-29T07:14:09;10.40;99.90
2999;DHT22;1509;51.964;7.628;2023-04-29T07:16:35;10.50;99.90
2999;DHT22;1509;51.964;7.628;2023-04-29T07:19:01;10.40;99.90
2999;DHT22;1509;51.964;7.628;2023-04-29T07:21:26;10.40;99.90
2999;DHT22;1509;51.964;7.628;2023-04-29T07:23:52;10.60;99.90
2999;DHT22;1509;51.964;7.628;2023-04-29T07:26:19;10.70;99.90
2999;DHT22;1509;51.964;7.628;2023-04-29T07:28:47;10.60;99.90
2999;DHT22;1509;51.964;7.628;2023-04-29T07:31:13;10.60;99.90
2999;DHT22;1509;51.964;7.628;2023-04-29T07:33:38;10.60;99.90
2999;DHT22;1509;51.964;7.628;2023-04-29T07:36:04;10.80;99.90
2999;DHT22;1509;51.964;7.628;2023-04-29T07:38:32;10.80;99.90
2999;DHT22;1509;51.964;7.628;2023-04-29T07:41:01;10.90;99.90
2999;DHT22;1509;51.964;7.628;2023-04-29T07:43:28;10.90;99.90
2999;DHT22;1509;51.964;7.628;2023-04-29T07:45:54;11.10;99.90
2999;DHT22;1509;51.964;7.628;2023-04-29T07:48:20;11.20;99.90
2999;DHT22;1509;51.964;7.628;2023-04-29T07:50:46;11.20;99.90
2999;DHT22;1509;51.964;7.628;2023-04-29T07:53:11;11.30;99.90
2999;DHT22;1509;51.964;7.628;2023-04-29T07:55:37;11.60;99.90
2999;DHT22;1509;51.964;7.628;2023-04-29T07:58:03;11.60;99.90
2999;DHT22;1509;51.964;7.628;2023-04-29T08:00:29;11.80;99.90
2999;DHT22;1509;51.964;7.628;2023-04-29T08:02:56;12.00;99.90
2999;DHT22;1509;51.964;7.628;2023-04-29T08:05:22;12.00;99.90
2999;DHT22;1509;51.964;7.628;2023-04-29T08:07:49;12.00;99.90
2999;DHT22;1509;51.964;7.628;2023-04-29T08:10:15;12.00;99.90
2999;DHT22;1509;51.964;7.628;2023-04-29T08:12:44;12.20;99.90
2999;DHT22;1509;51.964;7.628;2023-04-29T08:15:10;12.40;99.90
2999;DHT22;1509;51.964;7.628;2023-04-29T08:17:36;12.50;99.90
2999;DHT22;1509;51.964;7.628;2023-04-29T08:20:01;12.50;99.90
2999;DHT22;1509;51.964;7.628;2023-04-29T08:22:30;12.30;99.90
2999;DHT22;1509;51.964;7.628;2023-04-29T08:24:56;12.30;99.90
2999;DHT22;1509;51.964;7.628;2023-04-29T08:27:24;12.40;99.90
2999;DHT22;1509;51.964;7.628;2023-04-29T08:29:50;12.50;99.90
2999;DHT22;1509;51.964;7.628;2023-04-29T08:32:16;12.40;99.90
2999;DHT22;1509;51.964;7.628;2023-04-29T08:34:41;12.50;99.90
2999;DHT22;1509;51.964;7.628;2023-04-29T08:37:09;12.40;99.90
2999;DHT22;1509;51.964;7.628;2023-04-29T08:39:35;12.20;99.90
2999;DHT22;1509;51.964;7.628;2023-04-29T08:42:07;12.30;99.90
2999;DHT22;1509;51.964;7.628;2023-04-29T08:44:33;12.30;99.90
2999;DHT22;1509;51.964;7.628;2023-04-29T08:47:00;12.40;99.90
2999;DHT22;1509;51.964;7.628;2023-04-29T08:49:28;12.40;99.90
2999;DHT22;1509;51.964;7.628;2023-04-29T08:51:54;12.60;99.90
2999;DHT22;1509;51.964;7.628;2023-04-29T08:54:19;12.70;99.90
2999;DHT22;1509;51.964;7.628;2023-04-29T08:56:46;12.80;99.90
2999;DHT22;1509;51.964;7.628;2023-04-29T08:59:15;12.90;99.90
2999;DHT22;1509;51.964;7.628;2023-04-29T09:01:42;12.80;99.90
2999;DHT22;1509;51.964;7.628;2023-04-29T09:04:36;12.70;99.90
2999;DHT22;1509;51.964;7.628;2023-04-29T09:07:08;12.70;99.90
2999;DHT22;1509;51.964;7.628;2023-04-29T09:09:35;12.70;99.90
2999;DHT22;1509;51.964;7.628;2023-04-29T09:12:01;13.10;99.90
2999;DHT22;1509;51.964;7.628;2023-04-29T09:14:28;13.30;99.90
2999;DHT22;1509;51.964;7.628;2023-04-29T09:16:55;13.50;99.90
2999;DHT22;1509;51.964;7.628;2023-04-29T09:19:31;13.50;99.90
2999;DHT22;1509;51.964;7.628;2023-04-29T09:21:58;13.70;99.90
2999;DHT22;1509;51.964;7.628;2023-04-29T09:24:27;14.10;99.90
2999;DHT22;1509;51.964;7.628;2023-04-29T09:26:54;14.30;99.90
2999;DHT22;1509;51.964;7.628;2023-04-29T09:29:20;14.40;99.90
2999;DHT22;1509;51.964;7.628;2023-04-29T09:31:46;14.30;99.90
2999;DHT22;1509;51.964;7.628;2023-04-29T09:34:13;14.50;99.90
2999;DHT22;1509;51.964;7.628;2023-04-29T09:36:46;14.60;99.90
2999;DHT22;1509;51.964;7.628;2023-04-29T09:39:20;14.70;99.90
2999;DHT22;1509;51.964;7.628;2023-04-29T09:44:40;14.80;99.90
2999;DHT22;1509;51.964;7.628;2023-04-29T09:47:08;15.00;99.90
2999;DHT22;1509;51.964;7.628;2023-04-29T09:49:38;15.10;99.90
2999;DHT22;1509;51.964;7.628;2023-04-29T09:54:33;14.20;99.90
2999;DHT22;1509;51.964;7.628;2023-04-29T09:57:01;14.40;99.90
2999;DHT22;1509;51.964;7.628;2023-04-29T09:59:27;14.60;99.90
2999;DHT22;1509;51.964;7.628;2023-04-29T10:02:00;14.80;99.90
2999;DHT22;1509;51.964;7.628;2023-04-29T10:04:28;14.90;99.90
2999;DHT22;1509;51.964;7.628;2023-04-29T10:06:58;14.90;99.90
2999;DHT22;1509;51.964;7.628;2023-04-29T10:09:24;15.10;99.90
2999;DHT22;1509;51.964;7.628;2023-04-29T10:11:51;15.00;99.90
2999;DHT22;1509;51.964;7.628;2023-04-29T10:14:17;15.00;99.90
2999;DHT22;1509;51.964;7.628;2023-04-29T10:16:47;15.70;99.90
2999;DHT22;1509;51.964;7.628;2023-04-29T10:19:25;16.30;99.90
2999;DHT22;1509;51.964;7.628;2023-04-29T10:21:53;16.70;99.90
2999;DHT22;1509;51.964;7.628;2023-04-29T10:24:21;16.80;99.90
2999;DHT22;1509;51.964;7.628;2023-04-29T10:26:50;17.30;99.90
2999;DHT22;1509;51.964;7.628;2023-04-29T10:29:16;17.90;99.90
2999;DHT22;1509;51.964;7.628;2023-04-29T10:31:43;17.80;99.90
2999;DHT22;1509;51.964;7.628;2023-04-29T10:34:11;17.60;99.90
2999;DHT22;1509;51.964;7.628;2023-04-29T10:36:38;18.20;99.90
2999;DHT22;1509;51.964;7.628;2023-04-29T10:39:08;18.70;99.90
2999;DHT22;1509;51.964;7.628;2023-04-29T10:41:43;18.50;99.90
2999;DHT22;1509;51.964;7.628;2023-04-29T10:44:17;17.80;99.90
2999;DHT22;1509;51.964;7.628;2023-04-29T10:46:45;17.40;99.90
2999;DHT22;1509;51.964;7.628;2023-04-29T10:49:11;17.80;99.90
2999;DHT22;1509;51.964;7.628;2023-04-29T10:51:41;18.20;99.90
2999;DHT22;1509;51.964;7.628;2023-04-29T10:59:15;19.30;99.90
2999;DHT22;1509;51.964;7.628;2023-04-29T11:01:43;19.10;99.90
2999;DHT22;1509;51.964;7.628;2023-04-29T11:04:09;19.10;99.90
2999;DHT22;1509;51.964;7.628;2023-04-29T11:09:20;18.50;99.90
2999;DHT22;1509;51.964;7.628;2023-04-29T11:12:01;19.00;99.90
2999;DHT22;1509;51.964;7.628;2023-04-29T11:14:40;19.30;99.90
2999;DHT22;1509;51.964;7.628;2023-04-29T11:17:13;19.20;99.90
2999;DHT22;1509;51.964;7.628;2023-04-29T11:19:44;19.00;99.90
2999;DHT22;1509;51.964;7.628;2023-04-29T11:22:26;18.40;99.90
2999;DHT22;1509;51.964;7.628;2023-04-29T11:24:58;18.30;99.90
2999;DHT22;1509;51.964;7.628;2023-04-29T11:27:31;17.90;99.90
2999;DHT22;1509;51.964;7.628;2023-04-29T11:29:59;17.60;99.90
2999;DHT22;1509;51.964;7.628;2023-04-29T11:32:27;17.30;99.90
2999;DHT22;1509;51.964;7.628;2023-04-29T11:34:53;16.90;99.90
2999;DHT22;1509;51.964;7.628;2023-04-29T11:37:23;16.70;99.90
2999;DHT22;1509;51.964;7.628;2023-04-29T11:39:50;16.20;99.90
2999;DHT22;1509;51.964;7.628;2023-04-29T11:42:20;16.00;99.90
2999;DHT22;1509;51.964;7.628;2023-04-29T11:44:49;16.00;99.90
2999;DHT22;1509;51.964;7.628;2023-04-29T11:47:15;16.20;99.90
2999;DHT22;1509;51.964;7.628;2023-04-29T11:49:41;15.70;99.90
2999;DHT22;1509;51.964;7.628;2023-04-29T11:52:07;16.10;99.90
2999;DHT22;1509;51.964;7.628;2023-04-29T11:54:33;16.80;99.90
2999;DHT22;1509;51.964;7.628;2023-04-29T11:56:58;17.10;99.90
2999;DHT22;1509;51.964;7.628;2023-04-29T11:59:25;17.20;99.90
2999;DHT22;1509;51.964;7.628;2023-04-29T12:01:51;17.30;99.90
2999;DHT22;1509;51.964;7.628;2023-04-29T12:04:17;17.50;99.90
2999;DHT22;1509;51.964;7.628;2023-04-29T12:06:44;17.90;99.90
2999;DHT22;1509;51.964;7.628;2023-04-29T12:09:09;17.80;99.90
2999;DHT22;1509;51.964;7.628;2023-04-29T12:11:36;17.80;99.90
2999;DHT22;1509;51.964;7.628;2023-04-29T12:14:02;17.50;99.90
2999;DHT22;1509;51.964;7.628;2023-04-29T12:16:31;17.20;99.90
2999;DHT22;1509;51.964;7.628;2023-04-29T12:18:58;16.80;99.90
2999;DHT22;1509;51.964;7.628;2023-04-29T12:21:26;16.00;99.90
2999;DHT22;1509;51.964;7.628;2023-04-29T12:23:52;15.70;99.90
2999;DHT22;1509;51.964;7.628;2023-04-29T12:26:18;15.60;99.90
2999;DHT22;1509;51.964;7.628;2023-04-29T12:28:45;15.40;99.90
2999;DHT22;1509;51.964;7.628;2023-04-29T12:31:14;15.00;99.90
2999;DHT22;1509;51.964;7.628;2023-04-29T12:33:42;15.10;99.90
2999;DHT22;1509;51.964;7.628;2023-04-29T12:36:15;15.00;99.90
2999;DHT22;1509;51.964;7.628;2023-04-29T12:38:46;15.00;99.90
2999;DHT22;1509;51.964;7.628;2023-04-29T12:41:12;15.10;99.90
2999;DHT22;1509;51.964;7.628;2023-04-29T12:43:40;15.30;99.90
2999;DHT22;1509;51.964;7.628;2023-04-29T12:46:07;15.50;99.90
2999;DHT22;1509;51.964;7.628;2023-04-29T12:48:34;15.80;99.90
2999;DHT22;1509;51.964;7.628;2023-04-29T12:51:01;16.60;99.90
2999;DHT22;1509;51.964;7.628;2023-04-29T12:53:31;16.40;99.90
2999;DHT22;1509;51.964;7.628;2023-04-29T12:55:57;16.60;99.90
2999;DHT22;1509;51.964;7.628;2023-04-29T12:58:23;16.80;99.90
2999;DHT22;1509;51.964;7.628;2023-04-29T13:00:49;17.10;99.90
2999;DHT22;1509;51.964;7.628;2023-04-29T13:03:15;17.10;99.90
2999;DHT22;1509;51.964;7.628;2023-04-29T13:05:41;16.90;99.90
2999;DHT22;1509;51.964;7.628;2023-04-29T13:08:07;16.80;99.90
2999;DHT22;1509;51.964;7.628;2023-04-29T13:10:34;16.90;99.90
2999;DHT22;1509;51.964;7.628;2023-04-29T13:12:59;17.10;99.90
2999;DHT22;1509;51.964;7.628;2023-04-29T13:15:26;17.10;99.90
2999;DHT22;1509;51.964;7.628;2023-04-29T13:17:52;16.40;99.90
2999;DHT22;1509;51.964;7.628;2023-04-29T13:20:18;16.00;99.90
2999;DHT22;1509;51.964;7.628;2023-04-29T13:22:44;15.80;99.90
2999;DHT22;1509;51.964;7.628;2023-04-29T13:25:12;15.60;99.90
2999;DHT22;1509;51.964;7.628;2023-04-29T13:27:38;15.40;99.90
2999;DHT22;1509;51.964;7.628;2023-04-29T13:30:05;15.40;99.90
2999;DHT22;1509;51.964;7.628;2023-04-29T13:32:31;15.60;99.90
2999;DHT22;1509;51.964;7.628;2023-04-29T13:34:56;16.00;99.90
2999;DHT22;1509;51.964;7.628;2023-04-29T13:37:22;15.80;99.90
2999;DHT22;1509;51.964;7.628;2023-04-29T13:39:47;15.90;99.90
2999;DHT22;1509;51.964;7.628;2023-04-29T13:42:13;16.00;99.90
2999;DHT22;1509;51.964;7.628;2023-04-29T13:44:39;16.40;99.90
2999;DHT22;1509;51.964;7.628;2023-04-29T13:47:09;16.90;99.90
2999;DHT22;1509;51.964;7.628;2023-04-29T13:49:36;17.40;99.90
2999;DHT22;1509;51.964;7.628;2023-04-29T13:52:02;17.80;99.90
2999;DHT22;1509;51.964;7.628;2023-04-29T13:54:27;18.30;99.90
2999;DHT22;1509;51.964;7.628;2023-04-29T13:56:53;18.70;99.90
2999;DHT22;1509;51.964;7.628;2023-04-29T13:59:19;18.80;99.90
2999;DHT22;1509;51.964;7.628;2023-04-29T14:01:44;19.20;99.90
2999;DHT22;1509;51.964;7.628;2023-04-29T14:04:10;19.30;99.90
2999;DHT22;1509;51.964;7.628;2023-04-29T14:06:36;18.80;99.90
2999;DHT22;1509;51.964;7.628;2023-04-29T14:09:02;18.30;99.90
2999;DHT22;1509;51.964;7.628;2023-04-29T14:11:28;18.10;99.90
2999;DHT22;1509;51.964;7.628;2023-04-29T14:13:54;18.00;99.90
2999;DHT22;1509;51.964;7.628;2023-04-29T14:16:20;17.70;99.90
2999;DHT22;1509;51.964;7.628;2023-04-29T14:18:46;17.60;99.90
2999;DHT22;1509;51.964;7.628;2023-04-29T14:21:11;17.50;99.90
2999;DHT22;1509;51.964;7.628;2023-04-29T14:23:38;17.50;99.90
2999;DHT22;1509;51.964;7.628;2023-04-29T14:26:04;17.60;99.90
2999;DHT22;1509;51.964;7.628;2023-04-29T14:28:29;17.70;99.90
2999;DHT22;1509;51.964;7.628;2023-04-29T14:30:59;17.70;99.90
2999;DHT22;1509;51.964;7.628;2023-04-29T14:33:25;17.70;99.90
2999;DHT22;1509;51.964;7.628;2023-04-29T14:35:51;17.60;99.90
2999;DHT22;1509;51.964;7.628;2023-04-29T14:38:19;17.30;99.90
2999;DHT22;1509;51.964;7.628;2023-04-29T14:40:45;17.30;99.90
2999;DHT22;1509;51.964;7.628;2023-04-29T14:43:11;17.20;99.90
2999;DHT22;1509;51.964;7.628;2023-04-29T14:45:37;17.60;99.90
2999;DHT22;1509;51.964;7.628;2023-04-29T14:48:05;17.20;99.90
2999;DHT22;1509;51.964;7.628;2023-04-29T14:50:30;17.50;99.90
2999;DHT22;1509;51.964;7.628;2023-04-29T14:52:56;17.10;99.90
2999;DHT22;1509;51.964;7.628;2023-04-29T14:55:22;17.10;99.90
2999;DHT22;1509;51.964;7.628;2023-04-29T14:57:48;17.10;99.90
2999;DHT22;1509;51.964;7.628;2023-04-29T15:00:14;17.00;99.90
2999;DHT22;1509;51.964;7.628;2023-04-29T15:02:40;16.90;99.90
2999;DHT22;1509;51.964;7.628;2023-04-29T15:05:06;16.90;99.90
2999;DHT22;1509;51.964;7.628;2023-04-29T15:07:31;16.90;99.90
2999;DHT22;1509;51.964;7.628;2023-04-29T15:09:57;16.60;99.90
2999;DHT22;1509;51.964;7.628;2023-04-29T15:12:23;16.80;99.90
2999;DHT22;1509;51.964;7.628;2023-04-29T15:14:49;16.70;99.90
2999;DHT22;1509;51.964;7.628;2023-04-29T15:17:17;16.50;99.90
2999;DHT22;1509;51.964;7.628;2023-04-29T15:19:43;16.40;99.90
2999;DHT22;1509;51.964;7.628;2023-04-29T15:22:11;16.50;99.90
2999;DHT22;1509;51.964;7.628;2023-04-29T15:24:37;16.50;99.90
2999;DHT22;1509;51.964;7.628;2023-04-29T15:27:03;16.50;99.90
2999;DHT22;1509;51.964;7.628;2023-04-29T15:29:29;16.40;99.90
2999;DHT22;1509;51.964;7.628;2023-04-29T15:31:56;16.30;99.90
2999;DHT22;1509;51.964;7.628;2023-04-29T15:34:22;16.20;99.90
2999;DHT22;1509;51.964;7.628;2023-04-29T15:36:48;16.10;99.90
2999;DHT22;1509;51.964;7.628;2023-04-29T15:39:15;16.00;99.90
2999;DHT22;1509;51.964;7.628;2023-04-29T15:41:41;15.90;99.90
2999;DHT22;1509;51.964;7.628;2023-04-29T15:44:10;15.80;99.90
2999;DHT22;1509;51.964;7.628;2023-04-29T15:46:36;15.80;99.90
2999;DHT22;1509;51.964;7.628;2023-04-29T15:49:01;15.90;99.90
2999;DHT22;1509;51.964;7.628;2023-04-29T15:51:28;16.00;99.90
2999;DHT22;1509;51.964;7.628;2023-04-29T15:53:55;16.00;99.90
2999;DHT22;1509;51.964;7.628;2023-04-29T15:56:20;16.00;99.90
2999;DHT22;1509;51.964;7.628;2023-04-29T15:58:46;16.00;99.90
2999;DHT22;1509;51.964;7.628;2023-04-29T16:01:12;15.90;99.90
2999;DHT22;1509;51.964;7.628;2023-04-29T16:03:37;16.00;99.90
2999;DHT22;1509;51.964;7.628;2023-04-29T16:06:03;16.10;99.90
2999;DHT22;1509;51.964;7.628;2023-04-29T16:08:29;16.20;99.90
2999;DHT22;1509;51.964;7.628;2023-04-29T16:10:55;16.20;99.90
2999;DHT22;1509;51.964;7.628;2023-04-29T16:13:20;16.20;99.90
2999;DHT22;1509;51.964;7.628;2023-04-29T16:15:46;16.20;99.90
2999;DHT22;1509;51.964;7.628;2023-04-29T16:18:12;16.30;99.90
2999;DHT22;1509;51.964;7.628;2023-04-29T16:20:39;16.30;99.90
2999;DHT22;1509;51.964;7.628;2023-04-29T16:23:04;16.20;99.90